Time;durP1;ratioP1;P1;durP2;ratioP2;P2;SDS_P1;SDS_P2;PMS_P1;PMS_P2;Temp;Humidity;BMP_temperature;BMP_pressure;BME280_temperature;BME280_humidity;BME280_pressure;Samples;Min_cycle;Max_cycle;Signal;HPM_P1;HPM_P2
2023/05/04 00:01:10;;;;;;;5.28;2.42;;;;;;;10.61;100.00;100756.41;5033642;28;20041;-77
2023/05/04 00:03:36;;;;;;;5.85;3.33;;;;;;;11.14;100.00;100838.91;5032386;28;20112;-71
2023/05/04 00:06:02;;;;;;;4.32;3.03;;;;;;;11.22;100.00;100879.25;5029708;28;20048;-71
2023/05/04 00:08:27;;;;;;;6.15;3.30;;;;;;;10.10;100.00;100711.47;5001641;28;20046;-73
2023/05/04 00:10:54;;;;;;;6.80;3.78;;;;;;;10.50;100.00;100760.72;5012952;28;20496;-70
2023/05/04 00:13:20;;;;;;;5.50;2.92;;;;;;;11.02;100.00;100860.75;5011772;28;20116;-72
2023/05/04 00:15:46;;;;;;;5.95;3.20;;;;;;;10.98;100.00;100880.00;5019408;28;20454;-72
2023/05/04 00:18:11;;;;;;;7.70;3.75;;;;;;;10.58;100.00;100779.97;5038210;28;20061;-73
2023/05/04 00:20:37;;;;;;;5.57;2.90;;;;;;;10.80;100.00;100844.00;5035633;28;20096;-70
2023/05/04 00:23:02;;;;;;;4.90;3.00;;;;;;;10.50;100.00;100771.22;5034289;28;20347;-71
2023/05/04 00:25:28;;;;;;;4.53;2.90;;;;;;;10.43;100.00;100751.06;5038478;28;20042;-72
2023/05/04 00:27:53;;;;;;;7.60;3.10;;;;;;;10.41;100.00;100834.97;5007843;28;20030;-71
2023/05/04 00:30:19;;;;;;;10.00;5.25;;;;;;;10.07;100.00;100719.31;5009703;28;20057;-72
2023/05/04 00:32:45;;;;;;;7.20;3.50;;;;;;;10.26;100.00;100727.31;5040339;28;20053;-72
2023/05/04 00:35:11;;;;;;;6.70;3.80;;;;;;;10.35;100.00;100728.28;5039838;28;20064;-69
2023/05/04 00:37:37;;;;;;;5.50;2.58;;;;;;;10.96;100.00;100839.72;5030852;28;20111;-72
2023/05/04 00:40:02;;;;;;;6.90;4.45;;;;;;;10.87;100.00;100814.28;5009952;28;20034;-71
2023/05/04 00:42:28;;;;;;;6.45;3.75;;;;;;;10.17;100.00;100724.63;5006325;28;20034;-71
2023/05/04 00:44:53;;;;;;;4.85;3.08;;;;;;;11.07;100.00;100848.50;5033523;28;20045;-72
2023/05/04 00:47:20;;;;;;;6.30;3.20;;;;;;;10.94;100.00;100844.94;5027669;28;20814;-71
2023/05/04 00:49:45;;;;;;;9.27;4.20;;;;;;;10.13;100.00;100706.22;5037602;28;20045;-72
2023/05/04 00:52:13;;;;;;;7.00;3.30;;;;;;;10.86;100.00;100823.00;5025216;28;20095;-70
2023/05/04 00:54:41;;;;;;;7.65;4.25;;;;;;;10.37;100.00;100746.63;5026843;28;20135;-72
2023/05/04 00:57:07;;;;;;;8.20;3.22;;;;;;;10.20;100.00;100707.16;5013796;28;20042;-70
2023/05/04 00:59:33;;;;;;;7.78;3.80;;;;;;;10.89;100.00;100836.19;5010513;28;20116;-71
2023/05/04 01:01:58;;;;;;;9.07;4.00;;;;;;;10.97;100.00;100816.06;5004106;28;20049;-69
2023/05/04 01:04:24;;;;;;;5.50;3.83;;;;;;;10.75;100.00;100811.59;5019559;28;20164;-71
2023/05/04 01:06:49;;;;;;;7.57;4.35;;;;;;;10.81;100.00;100814.25;5006834;28;20042;-71
2023/05/04 01:09:51;;;;;;;6.97;3.33;;;;;;;10.99;100.00;100808.22;5000369;28;20058;-70
2023/05/04 01:12:18;;;;;;;4.40;2.55;;;;;;;10.35;100.00;100701.19;5030012;28;20509;-71
2023/05/04 01:14:46;;;;;;;6.18;4.80;;;;;;;10.20;100.00;100694.03;5033364;28;20052;-71
2023/05/04 01:17:12;;;;;;;6.72;4.00;;;;;;;10.05;100.00;100646.78;5031840;28;20044;-70
2023/05/04 01:19:37;;;;;;;6.70;3.85;;;;;;;10.58;100.00;100782.59;5017644;28;20360;-70
2023/05/04 01:22:03;;;;;;;6.90;3.90;;;;;;;10.20;100.00;100667.81;5009564;28;20462;-70
2023/05/04 01:24:30;;;;;;;7.70;4.10;;;;;;;10.07;100.00;100643.28;5008100;28;20168;-70
2023/05/04 01:27:04;;;;;;;6.63;3.60;;;;;;;10.73;100.00;100747.72;5016937;28;20616;-70
2023/05/04 01:29:41;;;;;;;5.60;2.95;;;;;;;10.21;100.00;100666.06;5029104;28;20552;-71
2023/05/04 01:32:08;;;;;;;5.53;3.75;;;;;;;10.13;100.00;100640.69;5042494;28;20049;-69
2023/05/04 01:34:36;;;;;;;6.47;4.32;;;;;;;10.63;100.00;100709.16;5040533;28;20477;-69
2023/05/04 01:37:02;;;;;;;4.75;3.53;;;;;;;10.77;100.00;100741.63;5024032;28;20034;-71
2023/05/04 01:39:29;;;;;;;4.40;2.55;;;;;;;10.90;100.00;100755.66;5033050;28;20045;-69
2023/05/04 01:41:54;;;;;;;7.70;3.83;;;;;;;10.31;100.00;100657.44;5021935;28;20573;-70
2023/05/04 01:44:20;;;;;;;7.65;3.85;;;;;;;10.65;100.00;100734.56;5031720;28;20102;-71
2023/05/04 01:46:45;;;;;;;9.27;3.47;;;;;;;9.60;100.00;100643.84;5034322;28;20546;-70
2023/05/04 01:49:11;;;;;;;7.10;4.63;;;;;;;9.98;100.00;100748.09;5030180;28;20516;-71
2023/05/04 01:51:36;;;;;;;6.97;3.25;;;;;;;10.08;100.00;100760.38;5006904;28;20117;-73
2023/05/04 01:54:02;;;;;;;6.20;4.20;;;;;;;10.21;100.00;100745.66;5013235;28;20485;-71
2023/05/04 01:56:27;;;;;;;6.07;4.07;;;;;;;10.45;100.00;100733.59;5007633;28;20406;-74
2023/05/04 01:58:53;;;;;;;6.60;3.90;;;;;;;9.44;100.00;100621.03;5020079;28;20210;-71
2023/05/04 02:01:18;;;;;;;5.68;3.60;;;;;;;10.05;100.00;100702.69;5032032;28;20073;-72
2023/05/04 02:03:44;;;;;;;9.30;6.53;;;;;;;9.38;100.00;100595.66;5028827;28;20033;-73
2023/05/04 02:06:09;;;;;;;5.50;3.78;;;;;;;9.51;100.00;100571.31;5037972;28;20175;-72
2023/05/04 02:08:35;;;;;;;5.15;3.60;;;;;;;10.45;100.00;100712.59;5023642;28;20541;-71
2023/05/04 02:11:00;;;;;;;5.68;4.50;;;;;;;9.63;100.00;100581.00;5012574;28;20409;-72
2023/05/04 02:13:26;;;;;;;6.13;4.38;;;;;;;10.01;100.00;100622.28;5012302;28;20100;-72
2023/05/04 02:15:51;;;;;;;6.53;4.47;;;;;;;10.52;100.00;100702.13;5010398;28;20038;-71
2023/05/04 02:18:17;;;;;;;6.93;4.30;;;;;;;10.49;100.00;100732.72;5020681;28;20037;-74
2023/05/04 02:20:42;;;;;;;8.00;4.93;;;;;;;9.74;100.00;100565.34;5035664;28;20128;-70
2023/05/04 02:23:08;;;;;;;7.55;4.55;;;;;;;10.54;100.00;100683.78;5030056;28;20119;-70
2023/05/04 02:25:33;;;;;;;4.80;3.35;;;;;;;10.55;100.00;100693.38;5051861;28;20086;-71
2023/05/04 02:27:59;;;;;;;7.70;3.55;;;;;;;9.84;100.00;100576.75;5036626;28;20049;-69
2023/05/04 02:30:25;;;;;;;6.80;4.18;;;;;;;9.98;100.00;100597.81;5033488;28;20485;-70
2023/05/04 02:32:50;;;;;;;9.02;4.85;;;;;;;10.39;100.00;100663.56;5029350;28;20127;-71
2023/05/04 02:35:16;;;;;;;8.52;5.07;;;;;;;10.46;100.00;100659.25;5031108;28;20481;-72
2023/05/04 02:37:41;;;;;;;5.90;3.88;;;;;;;9.83;100.00;100538.28;5023662;28;20175;-71
2023/05/04 02:40:07;;;;;;;7.90;5.07;;;;;;;10.49;100.00;100657.53;5011410;28;20429;-74
2023/05/04 02:42:33;;;;;;;6.80;4.65;;;;;;;10.51;100.00;100668.00;5005313;28;20137;-73
2023/05/04 02:44:58;;;;;;;9.50;5.70;;;;;;;10.12;100.00;100632.84;5009048;28;20137;-72
2023/05/04 02:47:24;;;;;;;7.85;4.85;;;;;;;10.33;100.00;100638.22;5029070;28;20068;-73
2023/05/04 02:49:49;;;;;;;8.63;4.45;;;;;;;10.38;100.00;100638.22;5038847;28;20100;-70
2023/05/04 02:52:15;;;;;;;9.13;6.07;;;;;;;10.38;100.00;100667.09;5032769;28;20045;-73
2023/05/04 02:54:40;;;;;;;11.32;5.90;;;;;;;9.72;100.00;100535.63;5045324;28;20029;-72
2023/05/04 02:57:06;;;;;;;7.70;5.03;;;;;;;10.44;100.00;100629.50;5023304;28;20030;-71
2023/05/04 02:59:31;;;;;;;9.35;4.63;;;;;;;10.37;100.00;100641.69;5014911;28;20066;-71
2023/05/04 03:01:57;;;;;;;9.75;6.00;;;;;;;9.92;100.00;100565.41;5005574;28;20541;-72
2023/05/04 03:04:22;;;;;;;8.65;4.97;;;;;;;10.46;100.00;100643.50;5023396;28;20045;-72
2023/05/04 03:06:48;;;;;;;9.27;5.85;;;;;;;10.06;100.00;100643.28;5034857;28;20033;-73
2023/05/04 03:09:13;;;;;;;6.53;4.78;;;;;;;10.25;100.00;100644.25;5038565;28;20827;-73
2023/05/04 03:11:39;;;;;;;6.25;4.20;;;;;;;10.12;100.00;100588.25;5035662;28;20124;-73
2023/05/04 03:14:05;;;;;;;7.65;5.22;;;;;;;9.85;100.00;100542.66;5032692;28;20397;-73
2023/05/04 03:16:31;;;;;;;7.63;5.15;;;;;;;10.25;100.00;100626.75;5030926;28;20450;-73
2023/05/04 03:18:56;;;;;;;11.45;5.90;;;;;;;10.01;100.00;100630.13;5040717;28;20021;-71
2023/05/04 03:21:22;;;;;;;7.85;4.45;;;;;;;9.09;100.00;100504.66;5014576;28;20026;-72
2023/05/04 03:23:48;;;;;;;9.00;4.72;;;;;;;9.76;100.00;100631.72;5009173;28;20049;-73
2023/05/04 03:26:13;;;;;;;7.55;5.22;;;;;;;9.80;100.00;100636.13;5030956;28;20068;-70
2023/05/04 03:28:38;;;;;;;8.55;5.25;;;;;;;9.74;100.00;100609.88;5035396;28;20160;-71
2023/05/04 03:31:04;;;;;;;6.95;5.35;;;;;;;8.99;100.00;100487.16;5032821;28;20037;-71
2023/05/04 03:33:29;;;;;;;8.00;5.53;;;;;;;9.35;100.00;100571.19;5031746;28;20037;-73
2023/05/04 03:35:56;;;;;;;8.57;5.63;;;;;;;9.64;100.00;100631.63;5043467;28;20045;-69
2023/05/04 03:38:22;;;;;;;8.15;6.05;;;;;;;9.64;100.00;100619.41;5023366;28;20116;-71
2023/05/04 03:40:47;;;;;;;7.72;5.70;;;;;;;9.41;100.00;100569.50;5033160;28;20045;-73
2023/05/04 03:43:12;;;;;;;8.48;6.22;;;;;;;10.06;100.00;100646.75;5027328;28;20037;-72
2023/05/04 03:45:38;;;;;;;8.73;5.95;;;;;;;10.09;100.00;100677.38;5013519;28;20022;-71
2023/05/04 03:48:04;;;;;;;9.00;6.25;;;;;;;9.88;100.00;100673.75;5021955;28;20069;-71
2023/05/04 03:50:30;;;;;;;13.25;6.50;;;;;;;9.25;100.00;100541.44;5034091;28;20083;-71
2023/05/04 03:52:56;;;;;;;13.18;6.45;;;;;;;9.26;100.00;100617.38;5030298;28;20049;-70
2023/05/04 03:55:22;;;;;;;15.48;6.85;;;;;;;8.92;100.00;100544.63;5034798;28;20041;-70
2023/05/04 03:57:47;;;;;;;11.85;6.50;;;;;;;9.21;100.00;100581.56;5016832;28;20128;-71
2023/05/04 04:00:14;;;;;;;9.27;6.97;;;;;;;9.75;100.00;100692.00;5016298;28;20060;-72
2023/05/04 04:02:39;;;;;;;9.18;6.45;;;;;;;9.73;100.00;100678.88;5013432;28;20041;-72
2023/05/04 04:05:05;;;;;;;8.98;6.97;;;;;;;8.80;100.00;100504.44;5021550;28;20052;-72
2023/05/04 04:07:32;;;;;;;8.60;6.53;;;;;;;9.64;100.00;100668.31;5016887;28;20061;-72
2023/05/04 04:09:57;;;;;;;10.48;6.80;;;;;;;9.72;100.00;100662.28;5028282;28;20057;-72
2023/05/04 04:12:23;;;;;;;10.32;6.75;;;;;;;9.70;100.00;100664.00;5036667;28;20204;-71
2023/05/04 04:14:51;;;;;;;8.65;5.85;;;;;;;9.73;100.00;100650.03;5029666;28;20044;-73
2023/05/04 04:17:16;;;;;;;12.25;7.65;;;;;;;9.58;100.00;100640.34;5032544;28;20045;-72
2023/05/04 04:19:42;;;;;;;8.98;7.05;;;;;;;9.76;100.00;100675.38;5035357;28;20049;-71
2023/05/04 04:22:07;;;;;;;9.15;6.47;;;;;;;8.99;100.00;100543.84;5033941;28;20131;-72
2023/05/04 04:24:34;;;;;;;10.23;6.90;;;;;;;9.66;100.00;100653.50;5031392;28;20482;-72
2023/05/04 04:26:59;;;;;;;9.90;6.70;;;;;;;8.78;100.00;100532.34;5038717;28;20048;-71
2023/05/04 04:29:26;;;;;;;10.30;7.45;;;;;;;9.79;100.00;100678.94;5039469;28;20048;-71
2023/05/04 04:31:51;;;;;;;8.45;6.45;;;;;;;8.87;100.00;100534.13;5029190;28;20045;-71
2023/05/04 04:34:17;;;;;;;2.67;1.88;;;;;;;9.70;100.00;100677.09;5030911;28;20063;-70
2023/05/04 04:36:43;;;;;;;11.85;7.70;;;;;;;9.51;100.00;100654.25;5034331;28;20445;-70
2023/05/04 04:39:09;;;;;;;11.48;7.40;;;;;;;9.60;100.00;100653.44;5003484;28;20052;-71
2023/05/04 04:41:35;;;;;;;8.18;5.38;;;;;;;9.48;100.00;100635.88;5000584;28;20042;-70
2023/05/04 04:44:01;;;;;;;10.90;7.95;;;;;;;9.54;100.00;100646.41;5009376;28;20149;-70
2023/05/04 04:46:26;;;;;;;7.07;5.38;;;;;;;9.60;100.00;100663.91;5001705;28;20096;-71
2023/05/04 04:48:53;;;;;;;11.38;6.72;;;;;;;9.10;100.00;100565.75;5013107;28;20111;-71
2023/05/04 04:51:19;;;;;;;15.57;6.47;;;;;;;9.78;100.00;100678.91;5008590;28;20073;-70
2023/05/04 04:53:44;;;;;;;2.58;1.30;;;;;;;9.60;100.00;100667.44;5017072;28;20080;-71
2023/05/04 04:56:12;;;;;;;2.30;1.52;;;;;;;9.73;100.00;100695.47;5017648;28;20045;-70
2023/05/04 04:58:37;;;;;;;7.10;5.35;;;;;;;8.95;100.00;100563.88;5009016;28;20141;-70
2023/05/04 05:01:03;;;;;;;9.55;6.28;;;;;;;8.95;100.00;100574.34;5016718;28;20144;-70
2023/05/04 05:03:30;;;;;;;8.98;6.75;;;;;;;9.08;100.00;100583.16;5012022;28;20410;-71
2023/05/04 05:05:55;;;;;;;9.18;5.30;;;;;;;9.90;100.00;100711.34;5010278;28;20387;-71
2023/05/04 05:08:21;;;;;;;11.27;7.68;;;;;;;9.02;100.00;100593.59;4996183;28;20056;-71
2023/05/04 05:10:47;;;;;;;9.45;6.38;;;;;;;9.88;100.00;100692.09;5010579;28;20049;-72
2023/05/04 05:13:12;;;;;;;8.80;5.57;;;;;;;9.86;100.00;100706.06;5013969;28;20607;-72
2023/05/04 05:15:38;;;;;;;9.27;7.18;;;;;;;9.90;100.00;100707.81;5007507;28;20057;-71
2023/05/04 05:18:03;;;;;;;11.60;6.97;;;;;;;9.48;100.00;100594.88;5017166;28;20213;-71
2023/05/04 05:20:29;;;;;;;9.85;7.97;;;;;;;9.63;100.00;100617.66;5012513;28;20076;-73
2023/05/04 05:22:54;;;;;;;10.27;6.40;;;;;;;10.11;100.00;100691.34;4999116;28;20049;-70
2023/05/04 05:25:20;;;;;;;7.40;5.70;;;;;;;9.78;100.00;100618.63;5012240;28;20129;-70
2023/05/04 05:27:45;;;;;;;10.90;6.82;;;;;;;10.14;100.00;100697.53;5001807;28;20058;-73
2023/05/04 05:30:11;;;;;;;7.80;5.68;;;;;;;10.42;100.00;100744.94;5003503;28;20362;-72
2023/05/04 05:32:37;;;;;;;10.30;5.80;;;;;;;10.37;100.00;100754.50;5000143;28;20050;-72
2023/05/04 05:35:03;;;;;;;8.05;4.78;;;;;;;10.05;100.00;100714.94;5001150;28;20444;-73
2023/05/04 05:37:30;;;;;;;11.90;5.97;;;;;;;9.52;100.00;100635.03;5003214;28;20054;-72
2023/05/04 05:39:55;;;;;;;9.95;6.03;;;;;;;9.32;100.00;100606.09;5011279;28;20053;-73
2023/05/04 05:42:21;;;;;;;9.60;5.97;;;;;;;9.83;100.00;100685.97;5040636;28;20041;-75
2023/05/04 05:44:48;;;;;;;10.20;6.30;;;;;;;10.05;100.00;100691.34;5022788;28;20184;-74
2023/05/04 05:47:13;;;;;;;10.68;6.15;;;;;;;9.37;100.00;100587.78;5033359;28;20053;-74
2023/05/04 05:49:40;;;;;;;7.93;5.22;;;;;;;9.93;100.00;100674.66;5036985;28;20394;-72
2023/05/04 05:52:05;;;;;;;10.40;7.15;;;;;;;9.89;100.00;100679.88;5025425;28;20060;-69
2023/05/04 05:54:31;;;;;;;11.55;6.63;;;;;;;9.36;100.00;100573.81;5028561;28;20484;-69
2023/05/04 05:56:57;;;;;;;11.90;7.30;;;;;;;10.15;100.00;100680.91;5025234;28;20049;-70
2023/05/04 05:59:22;;;;;;;12.93;7.35;;;;;;;9.77;100.00;100633.50;5029373;28;20065;-70
2023/05/04 06:01:48;;;;;;;9.48;6.45;;;;;;;9.38;100.00;100576.44;5028765;28;20475;-73
2023/05/04 06:04:13;;;;;;;7.82;5.70;;;;;;;9.26;100.00;100548.41;5042113;28;20488;-72
2023/05/04 06:06:39;;;;;;;8.07;6.35;;;;;;;10.04;100.00;100679.09;5026247;28;20029;-71
2023/05/04 06:09:05;;;;;;;7.53;5.65;;;;;;;10.02;100.00;100672.94;5023146;28;20485;-70
2023/05/04 06:11:30;;;;;;;8.45;6.18;;;;;;;10.11;100.00;100687.03;5035561;28;20472;-70
2023/05/04 06:13:56;;;;;;;8.70;5.45;;;;;;;9.14;100.00;100528.25;5048474;28;20575;-71
2023/05/04 06:16:22;;;;;;;9.63;5.97;;;;;;;9.44;100.00;100556.41;5032123;28;20055;-71
2023/05/04 06:18:47;;;;;;;10.10;5.50;;;;;;;9.38;100.00;100561.59;5033057;28;20028;-70
2023/05/04 06:21:13;;;;;;;9.50;6.15;;;;;;;9.97;100.00;100659.81;5039491;28;20238;-72
2023/05/04 06:23:40;;;;;;;10.13;4.38;;;;;;;10.04;100.00;100668.59;5031241;28;20129;-72
2023/05/04 06:26:06;;;;;;;12.77;5.70;;;;;;;10.02;100.00;100662.47;5041537;28;20492;-70
2023/05/04 06:28:33;;;;;;;9.88;6.00;;;;;;;9.60;100.00;100578.34;5035773;28;20052;-70
2023/05/04 06:30:58;;;;;;;7.50;4.70;;;;;;;10.05;100.00;100647.66;5031692;28;20033;-70
2023/05/04 06:33:24;;;;;;;12.55;6.57;;;;;;;10.09;100.00;100682.59;5032067;28;20030;-72
2023/05/04 06:35:50;;;;;;;9.43;5.57;;;;;;;10.00;100.00;100653.75;5041345;28;20033;-72
2023/05/04 06:38:16;;;;;;;9.60;5.55;;;;;;;9.47;100.00;100556.44;5027648;28;20066;-71
2023/05/04 06:40:41;;;;;;;10.05;6.68;;;;;;;10.21;100.00;100673.94;5032095;28;20489;-71
2023/05/04 06:43:07;;;;;;;10.57;6.72;;;;;;;9.67;100.00;100590.63;5045495;28;20107;-72
2023/05/04 06:45:35;;;;;;;10.15;6.28;;;;;;;9.50;100.00;100553.84;5024160;28;20466;-71
2023/05/04 06:48:02;;;;;;;11.13;6.32;;;;;;;9.49;100.00;100564.31;5032792;28;21301;-71
2023/05/04 06:50:28;;;;;;;7.63;5.20;;;;;;;10.03;100.00;100645.88;5031222;28;20041;-71
2023/05/04 06:53:10;;;;;;;10.02;6.32;;;;;;;9.40;100.00;100553.75;5018492;28;20061;-72
2023/05/04 06:55:36;;;;;;;9.80;6.10;;;;;;;10.05;100.00;100654.63;5011397;28;20066;-70
2023/05/04 06:58:03;;;;;;;8.32;5.97;;;;;;;10.31;100.00;100689.78;5022711;28;20030;-71
2023/05/04 07:00:29;;;;;;;8.07;5.32;;;;;;;10.21;100.00;100666.97;5021036;28;20053;-72
2023/05/04 07:02:55;;;;;;;11.05;5.75;;;;;;;10.24;100.00;100682.72;5009113;28;20715;-72
2023/05/04 07:05:21;;;;;;;9.77;5.78;;;;;;;10.23;100.00;100677.44;5020857;28;20050;-72
2023/05/04 07:07:47;;;;;;;10.38;6.53;;;;;;;10.34;100.00;100681.91;5009705;28;20042;-71
2023/05/04 07:10:14;;;;;;;10.15;7.00;;;;;;;10.33;100.00;100679.31;5027659;28;20111;-72
2023/05/04 07:12:40;;;;;;;12.35;7.78;;;;;;;9.70;100.00;100568.81;5039355;28;20036;-71
2023/05/04 07:15:07;;;;;;;10.38;5.65;;;;;;;9.51;100.00;100558.22;5013753;28;20492;-72
2023/05/04 07:17:33;;;;;;;11.57;6.57;;;;;;;9.72;100.00;100586.28;5025152;28;20444;-71
2023/05/04 07:20:01;;;;;;;10.07;6.10;;;;;;;9.73;100.00;100571.44;5015335;28;20744;-73
2023/05/04 07:22:27;;;;;;;12.63;8.15;;;;;;;10.32;100.00;100688.94;5011010;28;20046;-74
2023/05/04 07:24:52;;;;;;;9.15;6.63;;;;;;;10.16;100.00;100660.81;5013211;28;20061;-71
2023/05/04 07:27:18;;;;;;;11.68;7.85;;;;;;;10.46;100.00;100693.34;5015239;28;20041;-69
2023/05/04 07:29:43;;;;;;;8.57;5.88;;;;;;;9.79;100.00;100586.34;5008005;28;20112;-70
2023/05/04 07:32:09;;;;;;;6.78;5.72;;;;;;;10.43;100.00;100696.84;5021921;28;20049;-71
2023/05/04 07:34:34;;;;;;;10.38;6.10;;;;;;;10.43;100.00;100688.97;5033510;28;20032;-70
2023/05/04 07:37:03;;;;;;;9.15;6.35;;;;;;;9.80;100.00;100588.94;5047500;28;20034;-70
2023/05/04 07:39:29;;;;;;;8.13;5.70;;;;;;;10.38;100.00;100702.94;5025892;28;20155;-72
2023/05/04 07:41:54;;;;;;;9.93;5.63;;;;;;;10.41;100.00;100708.19;5032914;28;20140;-72
2023/05/04 07:44:19;;;;;;;11.60;5.82;;;;;;;10.45;100.00;100700.34;5025294;28;20042;-71
2023/05/04 07:46:46;;;;;;;7.10;5.35;;;;;;;9.96;100.00;100652.81;5028755;28;20425;-72
2023/05/04 07:49:12;;;;;;;11.48;5.88;;;;;;;10.09;100.00;100654.66;5048312;28;20045;-72
2023/05/04 07:51:38;;;;;;;10.20;6.40;;;;;;;10.31;100.00;100681.91;5037277;28;20472;-72
2023/05/04 07:54:03;;;;;;;8.27;5.43;;;;;;;10.17;100.00;100690.53;5035668;28;20108;-71
2023/05/04 07:56:29;;;;;;;13.77;7.03;;;;;;;9.93;100.00;100601.25;5021790;28;20038;-71
2023/05/04 07:58:54;;;;;;;11.65;6.05;;;;;;;10.21;100.00;100668.69;5027514;28;20405;-73
2023/05/04 08:01:20;;;;;;;12.38;7.20;;;;;;;9.84;100.00;100616.94;5035279;28;20038;-70
2023/05/04 08:03:45;;;;;;;9.18;6.75;;;;;;;10.48;100.00;100704.72;5024107;28;20500;-69
2023/05/04 08:06:12;;;;;;;10.35;5.18;;;;;;;10.53;100.00;100703.88;5016805;28;20057;-70
2023/05/04 08:08:37;;;;;;;10.13;6.05;;;;;;;9.82;100.00;100579.34;5015484;28;20045;-72
2023/05/04 08:11:03;;;;;;;10.48;6.63;;;;;;;10.12;100.00;100598.75;5024259;28;20468;-70
2023/05/04 08:13:28;;;;;;;10.13;6.50;;;;;;;10.52;100.00;100625.16;5023842;28;20415;-71
2023/05/04 08:15:56;;;;;;;8.00;5.63;;;;;;;10.81;100.00;100713.63;5019283;28;20501;-72
2023/05/04 08:18:21;;;;;;;7.25;5.45;;;;;;;10.80;100.00;100715.38;5019728;28;20775;-71
2023/05/04 08:20:47;;;;;;;7.38;4.80;;;;;;;10.13;100.00;100583.00;5019330;28;20041;-71
2023/05/04 08:23:13;;;;;;;7.30;5.07;;;;;;;10.90;100.00;100690.91;5017463;28;20042;-70
2023/05/04 08:25:38;;;;;;;9.52;6.40;;;;;;;10.57;100.00;100676.78;5025657;28;20155;-71
2023/05/04 08:28:03;;;;;;;9.05;5.82;;;;;;;11.06;100.00;100712.84;5027182;28;20044;-71
2023/05/04 08:30:30;;;;;;;10.02;6.78;;;;;;;10.41;100.00;100587.53;5026811;28;20044;-71
2023/05/04 08:32:55;;;;;;;8.25;5.63;;;;;;;10.91;100.00;100644.50;5002483;28;20046;-72
2023/05/04 08:35:26;;;;;;;8.35;5.55;;;;;;;11.23;100.00;100691.84;5007351;28;20042;-70
2023/05/04 08:37:54;;;;;;;9.82;6.15;;;;;;;10.51;100.00;100587.56;5014918;28;20071;-71
2023/05/04 08:40:22;;;;;;;13.40;10.32;;;;;;;11.34;100.00;100713.78;5024672;28;20503;-71
2023/05/04 08:42:50;;;;;;;9.55;7.07;;;;;;;11.22;100.00;100676.13;5023684;28;20121;-71
2023/05/04 08:45:16;;;;;;;13.00;7.57;;;;;;;11.15;100.00;100641.94;5021111;28;20033;-70
2023/05/04 08:47:42;;;;;;;9.07;6.65;;;;;;;11.44;100.00;100675.25;5026590;28;20042;-71
2023/05/04 08:50:09;;;;;;;11.40;6.60;;;;;;;10.86;100.00;100568.38;5013098;28;20061;-72
2023/05/04 08:52:37;;;;;;;9.68;6.85;;;;;;;10.88;100.00;100566.63;5007085;28;20086;-71
2023/05/04 08:55:04;;;;;;;8.65;6.45;;;;;;;10.97;100.00;100595.53;4999454;28;20076;-72
2023/05/04 08:57:30;;;;;;;12.32;8.05;;;;;;;11.13;100.00;100612.19;5005323;28;20116;-71
2023/05/04 08:59:57;;;;;;;10.20;6.45;;;;;;;11.58;100.00;100684.00;5015810;28;20060;-71
2023/05/04 09:02:23;;;;;;;8.68;5.90;;;;;;;11.59;100.00;100650.75;5022470;28;20048;-72
2023/05/04 09:04:50;;;;;;;10.93;5.88;;;;;;;11.01;100.00;100578.03;5026379;28;20505;-70
2023/05/04 09:07:20;;;;;;;8.48;6.18;;;;;;;11.79;100.00;100672.59;5023198;28;20053;-71
2023/05/04 09:09:47;;;;;;;10.20;7.03;;;;;;;11.57;100.00;100642.84;5019697;28;20103;-74
2023/05/04 09:12:13;;;;;;;8.00;4.75;;;;;;;11.37;100.00;100578.91;5026432;28;20092;-71
2023/05/04 09:14:40;;;;;;;9.18;6.22;;;;;;;11.39;100.00;100567.50;5025831;28;20049;-70
2023/05/04 09:17:13;;;;;;;7.18;5.22;;;;;;;11.67;100.00;100629.69;5024932;28;20517;-71
2023/05/04 09:19:42;;;;;;;12.45;7.88;;;;;;;11.85;100.00;100640.19;5025435;28;20077;-71
2023/05/04 09:22:16;;;;;;;10.27;8.50;;;;;;;11.62;100.00;100612.16;5020761;28;20062;-71
2023/05/04 09:24:41;;;;;;;9.80;7.43;;;;;;;11.93;100.00;100651.59;5011472;28;20803;-70
2023/05/04 09:27:11;;;;;;;9.57;6.07;;;;;;;11.92;100.00;100628.81;4996358;28;20038;-71
2023/05/04 09:29:39;;;;;;;8.52;5.85;;;;;;;11.44;100.00;100543.00;5006529;28;20050;-70
2023/05/04 09:32:06;;;;;;;9.45;5.82;;;;;;;12.03;100.00;100636.66;5016913;28;20054;-70
2023/05/04 09:34:32;;;;;;;7.53;5.70;;;;;;;11.65;100.00;100610.41;5024064;28;20080;-70
2023/05/04 09:37:00;;;;;;;7.78;5.47;;;;;;;11.87;100.00;100641.09;5026456;28;20035;-70
2023/05/04 09:39:26;;;;;;;7.80;5.68;;;;;;;11.94;100.00;100627.06;5006565;28;20038;-71
2023/05/04 09:41:51;;;;;;;15.15;5.53;;;;;;;11.56;100.00;100553.47;5006768;28;20049;-70
2023/05/04 09:44:20;;;;;;;9.00;6.05;;;;;;;11.78;100.00;100630.56;5012457;28;20064;-70
2023/05/04 09:46:56;;;;;;;7.57;4.90;;;;;;;11.12;100.00;100518.53;5026226;28;20129;-71
2023/05/04 09:49:31;;;;;;;7.70;6.05;;;;;;;11.95;100.00;100633.19;5021318;28;20052;-70
2023/05/04 09:51:58;;;;;;;6.05;4.72;;;;;;;11.53;100.00;100621.81;5005815;28;20038;-70
2023/05/04 09:54:25;;;;;;;8.90;5.35;;;;;;;10.91;100.00;100508.00;5002618;28;20036;-71
2023/05/04 09:56:55;;;;;;;9.48;7.13;;;;;;;11.55;100.00;100575.41;5005628;28;20069;-71
2023/05/04 09:59:25;;;;;;;10.82;6.82;;;;;;;11.45;100.00;100578.88;5033541;28;20049;-72
2023/05/04 10:01:52;;;;;;;8.90;5.55;;;;;;;11.01;100.00;100477.38;5019593;28;20125;-69
2023/05/04 10:04:17;;;;;;;11.10;6.50;;;;;;;11.71;100.00;100590.25;5021299;28;20604;-69
2023/05/04 10:06:43;;;;;;;12.93;7.80;;;;;;;11.97;100.00;100594.63;5006079;28;20037;-72
2023/05/04 10:09:10;;;;;;;12.15;5.63;;;;;;;11.90;100.00;100604.28;5000286;28;20038;-73
2023/05/04 10:11:36;;;;;;;9.30;4.97;;;;;;;10.89;100.00;100492.25;5004137;28;20073;-70
2023/05/04 10:14:02;;;;;;;6.70;4.80;;;;;;;10.87;100.00;100498.41;5005913;28;20489;-72
2023/05/04 10:16:35;;;;;;;8.30;5.15;;;;;;;11.67;100.00;100611.28;5011301;28;20048;-72
2023/05/04 10:19:09;;;;;;;9.27;5.50;;;;;;;11.79;100.00;100609.50;5025443;28;20060;-70
2023/05/04 10:21:56;;;;;;;9.57;5.82;;;;;;;11.62;100.00;100611.31;5025312;28;20041;-71
2023/05/04 10:24:43;;;;;;;10.27;5.85;;;;;;;11.59;100.00;100611.31;5025353;28;20049;-71
2023/05/04 10:27:20;;;;;;;7.22;5.00;;;;;;;10.91;100.00;100476.50;5031715;28;20045;-70
2023/05/04 10:29:50;;;;;;;11.40;5.57;;;;;;;11.79;100.00;100611.28;5014201;28;20054;-71
2023/05/04 10:32:17;;;;;;;11.93;6.05;;;;;;;11.06;100.00;100492.25;5021978;28;20062;-71
2023/05/04 10:34:44;;;;;;;8.38;5.70;;;;;;;11.99;100.00;100598.13;5026687;28;20046;-70
2023/05/04 10:37:18;;;;;;;9.30;5.95;;;;;;;11.27;100.00;100519.38;5026856;28;20044;-69
2023/05/04 10:39:53;;;;;;;6.85;4.82;;;;;;;11.72;100.00;100585.88;5020461;28;20076;-73
2023/05/04 10:42:20;;;;;;;12.50;6.72;;;;;;;11.82;100.00;100577.97;5026675;28;20555;-70
2023/05/04 10:44:52;;;;;;;10.07;6.50;;;;;;;11.94;100.00;100563.94;5020325;28;20053;-70
2023/05/04 10:47:39;;;;;;;10.40;6.30;;;;;;;11.99;100.00;100579.72;5018629;28;20634;-73
2023/05/04 10:50:10;;;;;;;10.27;6.32;;;;;;;11.09;100.00;100389.81;5027957;28;20061;-73
2023/05/04 10:52:46;;;;;;;10.93;7.40;;;;;;;12.31;100.00;100571.69;5026785;28;20151;-68
2023/05/04 10:55:13;;;;;;;13.07;8.02;;;;;;;12.41;100.00;100568.13;5026990;28;20465;-71
2023/05/04 10:57:52;;;;;;;10.55;6.05;;;;;;;12.35;100.00;100565.53;5024358;28;20485;-70
2023/05/04 11:00:18;;;;;;;11.23;7.53;;;;;;;12.21;100.00;100564.72;5028330;28;20053;-71
2023/05/04 11:02:47;;;;;;;9.80;6.35;;;;;;;12.40;100.00;100565.50;5026905;28;20059;-72
2023/05/04 11:05:18;;;;;;;6.90;5.32;;;;;;;11.67;100.00;100451.81;5019014;28;20056;-70
2023/05/04 11:07:44;;;;;;;10.77;6.40;;;;;;;12.30;100.00;100550.66;5018374;28;20046;-71
2023/05/04 11:10:39;;;;;;;8.45;5.32;;;;;;;12.60;100.00;100575.94;5026006;28;20412;-70
2023/05/04 11:13:11;;;;;;;9.32;6.35;;;;;;;12.69;100.00;100575.88;5001380;28;20124;-69
2023/05/04 11:15:47;;;;;;;11.45;6.57;;;;;;;12.86;100.00;100552.94;5022425;28;20033;-72